Time;durP1;ratioP1;P1;durP2;ratioP2;P2;SDS_P1;SDS_P2;PMS_P1;PMS_P2;Temp;Humidity;BMP_temperature;BMP_pressure;BME280_temperature;BME280_humidity;BME280_pressure;Samples;Min_cycle;Max_cycle;Signal;HPM_P1;HPM_P2
2024/02/21 00:00:00;;;;;;;18.33;5.45;;;;;;;;;;1258541;23;20077;-72
2024/02/21 00:00:30;;;;;;;4.72;4.30;;;;;;;;;;1258358;23;20093;-72
2024/02/21 00:01:01;;;;;;;5.07;4.65;;;;;;;;;;1258800;23;20038;-72
2024/02/21 00:01:31;;;;;;;27.40;6.90;;;;;;;;;;1258587;23;20477;-72
2024/02/21 00:02:02;;;;;;;6.25;5.30;;;;;;;;;;1264908;23;20048;-72
2024/02/21 00:02:33;;;;;;;3.90;3.63;;;;;;;;;;1264535;23;20004;-72
2024/02/21 00:03:04;;;;;;;6.47;5.88;;;;;;;;;;1258724;23;19998;-72
2024/02/21 00:03:35;;;;;;;15.20;6.50;;;;;;;;;;1258381;23;20553;-72
2024/02/21 00:04:05;;;;;;;9.57;5.22;;;;;;;;;;1258744;23;20089;-72
2024/02/21 00:04:37;;;;;;;4.53;4.22;;;;;;;;;;1258885;23;19995;-72
2024/02/21 00:05:07;;;;;;;3.67;3.38;;;;;;;;;;1258731;23;20003;-72
2024/02/21 00:05:37;;;;;;;9.40;6.38;;;;;;;;;;1252357;23;20011;-72
2024/02/21 00:06:08;;;;;;;9.57;5.68;;;;;;;;;;1252674;23;20022;-72
2024/02/21 00:06:38;;;;;;;7.45;6.05;;;;;;;;;;1252621;23;20018;-72
2024/02/21 00:07:09;;;;;;;18.48;7.68;;;;;;;;;;1258581;23;20065;-72
2024/02/21 00:07:39;;;;;;;8.10;4.90;;;;;;;;;;1258602;23;20079;-72
2024/02/21 00:08:10;;;;;;;15.57;6.05;;;;;;;;;;1265083;23;20521;-72
2024/02/21 00:08:40;;;;;;;8.23;5.65;;;;;;;;;;1264512;23;20946;-72
2024/02/21 00:09:11;;;;;;;9.43;5.53;;;;;;;;;;1264812;23;20041;-72
2024/02/21 00:09:41;;;;;;;10.50;6.25;;;;;;;;;;1264485;23;20033;-72
2024/02/21 00:10:12;;;;;;;13.27;8.30;;;;;;;;;;1258583;23;20085;-72
2024/02/21 00:10:42;;;;;;;4.63;3.45;;;;;;;;;;1258491;23;20045;-72
2024/02/21 00:11:13;;;;;;;4.63;3.90;;;;;;;;;;1258561;23;20009;-72
2024/02/21 00:11:43;;;;;;;9.10;7.53;;;;;;;;;;1258760;23;20316;-72
2024/02/21 00:12:14;;;;;;;4.45;4.15;;;;;;;;;;1258256;23;20431;-72
2024/02/21 00:12:44;;;;;;;4.47;3.95;;;;;;;;;;1252934;23;20003;-72
2024/02/21 00:13:15;;;;;;;17.30;6.43;;;;;;;;;;1258521;23;20029;-72
2024/02/21 00:13:45;;;;;;;6.25;4.55;;;;;;;;;;1252839;23;20106;-72
2024/02/21 00:14:16;;;;;;;7.65;6.95;;;;;;;;;;1258681;23;20006;-72
2024/02/21 00:14:46;;;;;;;11.02;3.33;;;;;;;;;;1258466;23;20072;-72
2024/02/21 00:15:17;;;;;;;10.95;6.32;;;;;;;;;;1258762;23;20005;-72
2024/02/21 00:15:47;;;;;;;10.70;7.32;;;;;;;;;;1265088;23;20006;-72
2024/02/21 00:16:18;;;;;;;12.10;5.80;;;;;;;;;;1264750;23;20006;-72
2024/02/21 00:16:48;;;;;;;16.35;8.93;;;;;;;;;;1265162;23;20005;-72
2024/02/21 00:17:19;;;;;;;3.13;2.78;;;;;;;;;;1264714;23;20319;-72
2024/02/21 00:17:49;;;;;;;6.40;3.25;;;;;;;;;;1258962;23;20349;-72
2024/02/21 00:18:20;;;;;;;12.65;5.43;;;;;;;;;;1258716;23;20392;-72
2024/02/21 00:18:50;;;;;;;8.23;4.75;;;;;;;;;;1259148;23;20068;-72
2024/02/21 00:19:20;;;;;;;7.05;5.18;;;;;;;;;;1258785;23;20344;-72
2024/02/21 00:19:51;;;;;;;3.08;2.88;;;;;;;;;;1265051;23;20080;-72
2024/02/21 00:20:21;;;;;;;5.22;4.22;;;;;;;;;;1264689;23;20006;-72
2024/02/21 00:20:52;;;;;;;14.80;7.20;;;;;;;;;;1265082;23;20044;-72
2024/02/21 00:21:23;;;;;;;4.68;4.03;;;;;;;;;;1265280;23;20002;-72
2024/02/21 00:21:53;;;;;;;22.48;4.78;;;;;;;;;;1258736;23;20041;-72
2024/02/21 00:22:24;;;;;;;17.92;6.85;;;;;;;;;;1258546;23;20064;-72
2024/02/21 00:22:55;;;;;;;7.20;5.40;;;;;;;;;;1258915;23;20029;-72
2024/02/21 00:23:25;;;;;;;12.85;7.60;;;;;;;;;;1258847;23;20419;-72
2024/02/21 00:23:56;;;;;;;7.45;6.88;;;;;;;;;;1258769;23;20014;-72
2024/02/21 00:24:26;;;;;;;7.57;4.50;;;;;;;;;;1253037;23;20011;-72
2024/02/21 00:24:58;;;;;;;5.65;5.00;;;;;;;;;;1258959;23;20007;-72
2024/02/21 00:25:28;;;;;;;12.13;5.72;;;;;;;;;;1258764;23;20010;-72
2024/02/21 00:25:59;;;;;;;10.93;4.00;;;;;;;;;;1259089;23;20002;-72
2024/02/21 00:26:29;;;;;;;21.02;8.25;;;;;;;;;;1258727;23;20018;-72
2024/02/21 00:27:00;;;;;;;12.88;6.43;;;;;;;;;;1258949;23;20038;-72
2024/02/21 00:27:32;;;;;;;21.30;7.57;;;;;;;;;;1258717;23;20089;-72
2024/02/21 00:28:02;;;;;;;24.00;8.20;;;;;;;;;;1259285;23;20033;-72
2024/02/21 00:28:33;;;;;;;8.32;6.55;;;;;;;;;;1265239;23;20013;-72
2024/02/21 00:29:03;;;;;;;4.63;4.20;;;;;;;;;;1265385;23;20010;-72
2024/02/21 00:29:34;;;;;;;12.32;7.47;;;;;;;;;;1265187;23;20037;-72
2024/02/21 00:30:05;;;;;;;18.95;7.68;;;;;;;;;;1258698;23;20006;-74
2024/02/21 00:30:38;;;;;;;20.10;8.98;;;;;;;;;;1258690;23;20006;-72
2024/02/21 00:31:08;;;;;;;10.43;7.03;;;;;;;;;;1259016;23;20014;-72
2024/02/21 00:31:39;;;;;;;4.68;4.28;;;;;;;;;;1259474;23;20025;-72
2024/02/21 00:32:09;;;;;;;7.20;5.00;;;;;;;;;;1265206;23;20009;-72
2024/02/21 00:32:40;;;;;;;13.43;7.50;;;;;;;;;;1265207;23;20089;-72
2024/02/21 00:33:10;;;;;;;6.18;5.63;;;;;;;;;;1265448;23;20005;-72
2024/02/21 00:33:41;;;;;;;14.45;8.65;;;;;;;;;;1265105;23;20093;-72
2024/02/21 00:34:13;;;;;;;7.85;5.20;;;;;;;;;;1264988;23;20369;-72
2024/02/21 00:34:44;;;;;;;14.23;7.70;;;;;;;;;;1258961;23;20097;-72
2024/02/21 00:35:14;;;;;;;12.77;4.47;;;;;;;;;;1252996;23;20015;-72
2024/02/21 00:35:45;;;;;;;30.52;9.15;;;;;;;;;;1253131;23;20006;-72
2024/02/21 00:36:15;;;;;;;14.75;7.65;;;;;;;;;;1252953;23;19998;-72
2024/02/21 00:36:45;;;;;;;16.25;7.55;;;;;;;;;;1259367;23;20002;-72
2024/02/21 00:37:16;;;;;;;10.20;8.05;;;;;;;;;;1258374;23;20140;-72
2024/02/21 00:37:46;;;;;;;8.65;5.85;;;;;;;;;;1259078;23;20343;-72
2024/02/21 00:38:17;;;;;;;19.35;5.80;;;;;;;;;;1258673;23;20037;-72
2024/02/21 00:38:47;;;;;;;12.30;9.65;;;;;;;;;;1259152;23;20010;-72
2024/02/21 00:39:18;;;;;;;10.80;6.90;;;;;;;;;;1264751;23;20010;-72
2024/02/21 00:39:48;;;;;;;9.52;8.60;;;;;;;;;;1264696;23;20422;-73
2024/02/21 00:40:20;;;;;;;22.83;5.80;;;;;;;;;;1264633;23;20009;-73
2024/02/21 00:40:50;;;;;;;23.92;6.22;;;;;;;;;;1264918;23;20010;-72
2024/02/21 00:41:21;;;;;;;12.32;7.95;;;;;;;;;;1264833;23;20014;-72
2024/02/21 00:41:51;;;;;;;20.90;11.55;;;;;;;;;;1265263;23;20010;-72
2024/02/21 00:42:22;;;;;;;9.95;5.97;;;;;;;;;;1258646;23;20006;-72
2024/02/21 00:42:52;;;;;;;12.48;10.73;;;;;;;;;;1258994;23;20028;-72
2024/02/21 00:43:23;;;;;;;6.45;4.93;;;;;;;;;;1258596;23;20010;-72
2024/02/21 00:43:54;;;;;;;6.10;5.40;;;;;;;;;;1258909;23;20010;-72
2024/02/21 00:44:24;;;;;;;12.63;7.50;;;;;;;;;;1264888;23;20002;-72
2024/02/21 00:44:54;;;;;;;16.73;7.32;;;;;;;;;;1265306;23;20063;-72
2024/02/21 00:45:25;;;;;;;10.82;4.28;;;;;;;;;;1264958;23;20018;-72
2024/02/21 00:45:56;;;;;;;2.95;2.30;;;;;;;;;;1265218;23;20059;-72
2024/02/21 00:46:26;;;;;;;11.70;6.75;;;;;;;;;;1265159;23;20006;-72
2024/02/21 00:46:57;;;;;;;5.50;4.50;;;;;;;;;;1265460;23;20396;-72
2024/02/21 00:47:27;;;;;;;8.27;7.00;;;;;;;;;;1264557;23;20013;-72
2024/02/21 00:47:58;;;;;;;7.38;6.78;;;;;;;;;;1258765;23;20029;-72
2024/02/21 00:48:28;;;;;;;9.25;5.38;;;;;;;;;;1258718;23;20006;-72
2024/02/21 00:48:59;;;;;;;2.15;2.05;;;;;;;;;;1258826;23;20011;-72
2024/02/21 00:49:29;;;;;;;3.03;2.70;;;;;;;;;;1252783;23;20080;-72
2024/02/21 00:50:00;;;;;;;16.30;10.27;;;;;;;;;;1258647;23;20006;-72
2024/02/21 00:50:30;;;;;;;9.40;5.63;;;;;;;;;;1252781;23;20081;-72
2024/02/21 00:51:01;;;;;;;11.70;4.70;;;;;;;;;;1252890;23;20407;-72
2024/02/21 00:51:31;;;;;;;12.13;5.85;;;;;;;;;;1258657;23;20002;-72
2024/02/21 00:52:02;;;;;;;7.22;5.85;;;;;;;;;;1258439;23;20041;-72
2024/02/21 00:52:32;;;;;;;9.20;6.18;;;;;;;;;;1265048;23;20002;-72
2024/02/21 00:53:03;;;;;;;19.60;10.38;;;;;;;;;;1265246;23;20454;-72
2024/02/21 00:53:33;;;;;;;11.82;8.57;;;;;;;;;;1264959;23;20008;-72
2024/02/21 00:54:04;;;;;;;6.00;5.47;;;;;;;;;;1264959;23;20021;-72
2024/02/21 00:54:34;;;;;;;14.55;7.28;;;;;;;;;;1263968;23;20373;-72
2024/02/21 00:55:05;;;;;;;5.65;5.13;;;;;;;;;;1264412;23;20429;-72
2024/02/21 00:55:36;;;;;;;13.70;7.60;;;;;;;;;;1264716;23;20017;-72
2024/02/21 00:56:06;;;;;;;22.48;7.13;;;;;;;;;;1264961;23;20457;-72
2024/02/21 00:56:37;;;;;;;17.40;7.05;;;;;;;;;;1264666;23;20466;-72
2024/02/21 00:57:07;;;;;;;22.60;10.27;;;;;;;;;;1264787;23;20006;-73
2024/02/21 00:57:38;;;;;;;17.00;6.75;;;;;;;;;;1264576;23;20010;-73
2024/02/21 00:58:08;;;;;;;14.63;7.43;;;;;;;;;;1258433;23;20370;-73
2024/02/21 00:58:38;;;;;;;21.70;6.43;;;;;;;;;;1258230;23;20006;-73
2024/02/21 00:59:09;;;;;;;16.55;7.25;;;;;;;;;;1252757;23;20470;-73
2024/02/21 00:59:39;;;;;;;8.45;3.35;;;;;;;;;;1246936;23;20011;-73
2024/02/21 01:00:10;;;;;;;5.50;5.00;;;;;;;;;;1252476;23;20038;-73
2024/02/21 01:00:41;;;;;;;24.98;7.28;;;;;;;;;;1252557;23;20089;-73
2024/02/21 01:01:11;;;;;;;7.78;6.40;;;;;;;;;;1258798;23;20374;-73
2024/02/21 01:01:42;;;;;;;14.73;8.40;;;;;;;;;;1265001;23;20010;-72
2024/02/21 01:02:13;;;;;;;8.02;6.65;;;;;;;;;;1264835;23;20017;-72
2024/02/21 01:02:43;;;;;;;12.55;8.45;;;;;;;;;;1265083;23;20551;-72
2024/02/21 01:03:14;;;;;;;13.10;6.43;;;;;;;;;;1264982;23;20021;-72
2024/02/21 01:03:44;;;;;;;20.25;7.65;;;;;;;;;;1265290;23;20084;-72
2024/02/21 01:04:15;;;;;;;8.50;6.90;;;;;;;;;;1264589;23;20441;-72
2024/02/21 01:04:45;;;;;;;7.82;4.80;;;;;;;;;;1258940;23;20064;-72
2024/02/21 01:05:16;;;;;;;15.20;5.45;;;;;;;;;;1258642;23;20311;-72
2024/02/21 01:05:46;;;;;;;6.55;4.70;;;;;;;;;;1258746;23;20010;-72
2024/02/21 01:06:17;;;;;;;4.45;4.05;;;;;;;;;;1258645;23;20557;-72
2024/02/21 01:06:47;;;;;;;11.52;5.97;;;;;;;;;;1264670;23;20010;-72
2024/02/21 01:07:18;;;;;;;11.07;6.97;;;;;;;;;;1264514;23;20048;-72
2024/02/21 01:07:48;;;;;;;29.40;7.95;;;;;;;;;;1265226;23;20002;-72
2024/02/21 01:08:19;;;;;;;9.40;5.28;;;;;;;;;;1265150;23;20442;-72
2024/02/21 01:08:49;;;;;;;9.55;8.60;;;;;;;;;;1265085;23;20013;-72
2024/02/21 01:09:19;;;;;;;7.00;6.25;;;;;;;;;;1258369;23;20334;-72
2024/02/21 01:09:53;;;;;;;7.88;6.88;;;;;;;;;;1258756;23;20013;-72
2024/02/21 01:10:23;;;;;;;15.73;5.78;;;;;;;;;;1258541;23;20060;-72
2024/02/21 01:10:54;;;;;;;17.38;7.68;;;;;;;;;;1259502;23;20668;-72
2024/02/21 01:11:24;;;;;;;14.63;9.30;;;;;;;;;;1264912;23;20029;-72
2024/02/21 01:11:55;;;;;;;15.15;7.43;;;;;;;;;;1265198;23;20013;-72
2024/02/21 01:12:25;;;;;;;23.17;8.15;;;;;;;;;;1264850;23;20006;-72
2024/02/21 01:12:56;;;;;;;17.27;9.18;;;;;;;;;;1265200;23;20041;-72
2024/02/21 01:13:26;;;;;;;7.53;4.88;;;;;;;;;;1264776;23;20497;-72
2024/02/21 01:13:57;;;;;;;8.93;6.03;;;;;;;;;;1256972;23;20007;-72
2024/02/21 01:14:28;;;;;;;5.43;4.68;;;;;;;;;;1251640;23;20009;-72
2024/02/21 01:14:58;;;;;;;5.20;4.80;;;;;;;;;;1246814;23;19999;-72
2024/02/21 01:15:29;;;;;;;7.40;6.03;;;;;;;;;;1245113;23;20011;-72
2024/02/21 01:15:59;;;;;;;8.07;6.25;;;;;;;;;;1251610;23;20013;-74
2024/02/21 01:16:30;;;;;;;5.88;5.20;;;;;;;;;;1257691;23;20108;-72
2024/02/21 01:17:02;;;;;;;4.75;4.38;;;;;;;;;;1258516;23;20346;-73
2024/02/21 01:17:33;;;;;;;5.07;4.63;;;;;;;;;;1258229;23;20010;-73
2024/02/21 01:18:05;;;;;;;11.75;7.68;;;;;;;;;;1258293;23;20093;-73
2024/02/21 01:18:37;;;;;;;11.00;6.68;;;;;;;;;;1259004;23;20012;-73
2024/02/21 01:19:08;;;;;;;9.02;5.25;;;;;;;;;;1264055;23;20017;-73
2024/02/21 01:19:38;;;;;;;20.73;11.68;;;;;;;;;;1263208;23;20029;-73
2024/02/21 01:20:09;;;;;;;6.50;5.88;;;;;;;;;;1264419;23;20381;-73
2024/02/21 01:20:39;;;;;;;11.65;5.30;;;;;;;;;;1264957;23;20204;-73
2024/02/21 01:21:10;;;;;;;9.90;7.72;;;;;;;;;;1258162;23;20449;-73
2024/02/21 01:21:40;;;;;;;5.63;5.22;;;;;;;;;;1258549;23;20013;-73
2024/02/21 01:22:11;;;;;;;6.13;3.60;;;;;;;;;;1258072;23;20038;-73
2024/02/21 01:22:41;;;;;;;23.65;9.10;;;;;;;;;;1258209;23;20014;-73
2024/02/21 01:23:12;;;;;;;8.15;5.85;;;;;;;;;;1258470;23;20006;-73
2024/02/21 01:23:42;;;;;;;16.25;9.18;;;;;;;;;;1252415;23;20014;-73
2024/02/21 01:24:14;;;;;;;38.45;8.65;;;;;;;;;;1251898;23;20011;-73
2024/02/21 01:24:44;;;;;;;5.10;4.63;;;;;;;;;;1252828;23;20007;-73
2024/02/21 01:25:15;;;;;;;12.60;6.70;;;;;;;;;;1252362;23;20014;-74
2024/02/21 01:25:45;;;;;;;5.53;3.80;;;;;;;;;;1258346;23;20006;-74
2024/02/21 01:26:16;;;;;;;9.73;7.63;;;;;;;;;;1257877;23;20021;-73
2024/02/21 01:26:46;;;;;;;6.28;5.43;;;;;;;;;;1252602;23;20063;-73
2024/02/21 01:27:17;;;;;;;6.43;5.25;;;;;;;;;;1258020;23;20006;-74
2024/02/21 01:27:47;;;;;;;6.63;6.10;;;;;;;;;;1257864;23;20334;-74
2024/02/21 01:28:18;;;;;;;11.68;10.10;;;;;;;;;;1257635;23;20007;-74
2024/02/21 01:28:49;;;;;;;22.48;8.90;;;;;;;;;;1264673;23;20005;-74
2024/02/21 01:29:19;;;;;;;37.22;8.63;;;;;;;;;;1264076;23;20020;-74
2024/02/21 01:29:50;;;;;;;10.55;9.10;;;;;;;;;;1264560;23;20013;-74
2024/02/21 01:30:20;;;;;;;23.92;9.32;;;;;;;;;;1264037;23;20037;-74
2024/02/21 01:30:51;;;;;;;8.40;6.75;;;;;;;;;;1257209;23;20022;-74
2024/02/21 01:31:22;;;;;;;7.43;5.97;;;;;;;;;;1251923;23;20010;-74
2024/02/21 01:31:52;;;;;;;26.17;7.90;;;;;;;;;;1250673;23;20011;-74
2024/02/21 01:32:24;;;;;;;5.93;5.32;;;;;;;;;;1251483;23;20018;-75
2024/02/21 01:32:54;;;;;;;14.63;8.35;;;;;;;;;;1251329;23;20011;-75
2024/02/21 01:33:25;;;;;;;13.55;6.28;;;;;;;;;;1257923;23;20006;-74
2024/02/21 01:33:55;;;;;;;4.75;4.35;;;;;;;;;;1256382;23;20079;-74
2024/02/21 01:34:26;;;;;;;23.58;11.05;;;;;;;;;;1255935;23;20118;-73
2024/02/21 01:34:57;;;;;;;23.00;10.65;;;;;;;;;;1261536;23;20478;-74
2024/02/21 01:35:27;;;;;;;46.63;18.75;;;;;;;;;;1260160;23;20116;-73
2024/02/21 01:35:57;;;;;;;23.63;5.07;;;;;;;;;;1255029;23;20007;-74
2024/02/21 01:36:28;;;;;;;15.52;7.72;;;;;;;;;;1249058;23;20286;-74
2024/02/21 01:36:59;;;;;;;17.70;12.32;;;;;;;;;;1250286;23;20518;-74
2024/02/21 01:37:30;;;;;;;9.32;5.60;;;;;;;;;;1250245;23;20030;-74
2024/02/21 01:38:00;;;;;;;10.02;7.20;;;;;;;;;;1256140;23;20010;-73
2024/02/21 01:38:31;;;;;;;7.10;5.70;;;;;;;;;;1261133;23;20089;-73
2024/02/21 01:39:02;;;;;;;11.20;7.97;;;;;;;;;;1261822;23;20006;-73
2024/02/21 01:39:33;;;;;;;15.32;7.45;;;;;;;;;;1262435;23;20002;-73
2024/02/21 01:40:04;;;;;;;8.15;6.13;;;;;;;;;;1262067;23;20013;-73
2024/02/21 01:40:34;;;;;;;6.40;5.28;;;;;;;;;;1257542;23;20057;-73
2024/02/21 01:41:05;;;;;;;11.05;9.05;;;;;;;;;;1261604;23;20012;-74
2024/02/21 01:41:35;;;;;;;15.32;8.55;;;;;;;;;;1256419;23;20159;-74
2024/02/21 01:42:06;;;;;;;13.20;9.95;;;;;;;;;;1264223;23;19998;-74
2024/02/21 01:42:40;;;;;;;13.07;10.18;;;;;;;;;;1264143;23;20010;-74
2024/02/21 01:43:18;;;;;;;6.18;5.57;;;;;;;;;;1263367;23;20005;-74
2024/02/21 01:43:49;;;;;;;22.58;7.60;;;;;;;;;;1256906;23;20006;-75
2024/02/21 01:44:20;;;;;;;12.77;7.63;;;;;;;;;;1255985;23;20110;-74
2024/02/21 01:44:51;;;;;;;6.55;6.07;;;;;;;;;;1250735;23;20448;-74
2024/02/21 01:45:21;;;;;;;14.50;7.25;;;;;;;;;;1251344;23;20013;-74
2024/02/21 01:45:52;;;;;;;7.28;5.68;;;;;;;;;;1257746;23;20450;-74
2024/02/21 01:46:27;;;;;;;5.60;5.13;;;;;;;;;;1256641;23;20006;-74
2024/02/21 01:46:58;;;;;;;6.55;5.93;;;;;;;;;;1257066;23;20006;-74
2024/02/21 01:47:28;;;;;;;7.63;5.53;;;;;;;;;;1256924;23;20007;-74
2024/02/21 01:47:59;;;;;;;8.95;4.35;;;;;;;;;;1251313;23;20003;-74
2024/02/21 01:48:29;;;;;;;3.95;3.65;;;;;;;;;;1251527;23;20022;-74
2024/02/21 01:49:00;;;;;;;6.57;5.88;;;;;;;;;;1257257;23;19999;-74
2024/02/21 01:49:31;;;;;;;8.98;6.78;;;;;;;;;;1252079;23;20022;-74
2024/02/21 01:50:02;;;;;;;4.97;4.68;;;;;;;;;;1251630;23;20335;-74
2024/02/21 01:50:33;;;;;;;16.95;7.55;;;;;;;;;;1252287;23;20014;-74
2024/02/21 01:51:04;;;;;;;16.17;6.35;;;;;;;;;;1251609;23;20037;-74
2024/02/21 01:51:35;;;;;;;7.85;4.72;;;;;;;;;;1257366;23;20017;-75
2024/02/21 01:52:05;;;;;;;14.07;9.90;;;;;;;;;;1257069;23;20102;-74
2024/02/21 01:52:36;;;;;;;6.18;4.68;;;;;;;;;;1257734;23;20010;-75
2024/02/21 01:53:07;;;;;;;10.07;6.25;;;;;;;;;;1258114;23;20002;-75
2024/02/21 01:53:38;;;;;;;14.18;6.65;;;;;;;;;;1258134;23;20014;-73
2024/02/21 01:54:09;;;;;;;7.65;4.60;;;;;;;;;;1258061;23;20013;-73
2024/02/21 01:54:44;;;;;;;5.70;4.80;;;;;;;;;;1258172;23;20061;-74
2024/02/21 01:55:16;;;;;;;12.80;11.63;;;;;;;;;;1264535;23;20422;-73
2024/02/21 01:55:47;;;;;;;19.55;6.75;;;;;;;;;;1263362;23;20105;-73
2024/02/21 01:56:17;;;;;;;9.88;4.72;;;;;;;;;;1262567;23;20013;-73
2024/02/21 01:56:48;;;;;;;19.33;7.32;;;;;;;;;;1257656;23;20053;-73
2024/02/21 01:57:18;;;;;;;8.18;5.90;;;;;;;;;;1257278;23;20010;-73
2024/02/21 01:57:49;;;;;;;8.95;5.35;;;;;;;;;;1257344;23;20101;-73
2024/02/21 01:58:19;;;;;;;3.05;2.85;;;;;;;;;;1251122;23;20105;-73
2024/02/21 01:58:51;;;;;;;8.75;5.90;;;;;;;;;;1257527;23;20079;-73
2024/02/21 01:59:22;;;;;;;13.38;10.85;;;;;;;;;;1257284;23;20014;-74
2024/02/21 01:59:52;;;;;;;11.00;6.93;;;;;;;;;;1257710;23;20011;-74
2024/02/21 02:00:23;;;;;;;8.45;6.47;;;;;;;;;;1262540;23;20009;-74
2024/02/21 02:00:56;;;;;;;15.50;5.72;;;;;;;;;;1263364;23;20010;-74
2024/02/21 02:01:26;;;;;;;5.95;5.55;;;;;;;;;;1263554;23;20010;-74
2024/02/21 02:01:58;;;;;;;6.30;5.78;;;;;;;;;;1263666;23;20430;-74
2024/02/21 02:02:29;;;;;;;7.25;5.43;;;;;;;;;;1263081;23;20493;-74
2024/02/21 02:02:59;;;;;;;16.40;12.40;;;;;;;;;;1263996;23;20006;-74
2024/02/21 02:03:31;;;;;;;11.30;6.45;;;;;;;;;;1263194;23;20005;-74
2024/02/21 02:04:02;;;;;;;7.82;4.80;;;;;;;;;;1262725;23;20284;-74
2024/02/21 02:04:34;;;;;;;17.25;6.70;;;;;;;;;;1262895;23;20009;-74
2024/02/21 02:05:06;;;;;;;13.15;7.70;;;;;;;;;;1255651;23;20011;-74
2024/02/21 02:05:36;;;;;;;10.40;8.30;;;;;;;;;;1251489;23;20007;-74
2024/02/21 02:06:07;;;;;;;13.98;6.70;;;;;;;;;;1245287;23;20115;-74
2024/02/21 02:06:37;;;;;;;3.80;3.60;;;;;;;;;;1246110;23;20061;-74
2024/02/21 02:07:10;;;;;;;8.13;7.25;;;;;;;;;;1245777;23;20194;-74
2024/02/21 02:07:41;;;;;;;13.15;7.75;;;;;;;;;;1252044;23;20010;-74
2024/02/21 02:08:15;;;;;;;4.65;4.30;;;;;;;;;;1252401;23;20507;-74
2024/02/21 02:08:46;;;;;;;7.28;6.55;;;;;;;;;;1256459;23;20488;-74
2024/02/21 02:09:16;;;;;;;17.88;9.40;;;;;;;;;;1248874;23;20044;-74
2024/02/21 02:09:47;;;;;;;12.45;7.90;;;;;;;;;;1250833;23;20003;-74
2024/02/21 02:10:17;;;;;;;6.05;5.53;;;;;;;;;;1254758;23;20342;-74
2024/02/21 02:10:48;;;;;;;4.97;4.65;;;;;;;;;;1256506;23;20016;-74
2024/02/21 02:11:19;;;;;;;11.00;6.28;;;;;;;;;;1263304;23;20012;-74
2024/02/21 02:11:50;;;;;;;22.05;10.80;;;;;;;;;;1261452;23;20338;-74
2024/02/21 02:12:21;;;;;;;15.25;7.25;;;;;;;;;;1262443;23;20013;-74
2024/02/21 02:12:52;;;;;;;15.43;9.57;;;;;;;;;;1256094;23;20002;-74
2024/02/21 02:13:22;;;;;;;4.43;3.33;;;;;;;;;;1256173;23;20006;-74
2024/02/21 02:13:55;;;;;;;3.35;3.15;;;;;;;;;;1249433;23;20219;-74
2024/02/21 02:14:26;;;;;;;7.20;6.57;;;;;;;;;;1250822;23;19999;-74
2024/02/21 02:15:00;;;;;;;10.88;6.20;;;;;;;;;;1256504;23;20020;-74
2024/02/21 02:15:44;;;;;;;5.80;4.68;;;;;;;;;;1258185;23;20438;-74
2024/02/21 02:16:14;;;;;;;5.93;4.13;;;;;;;;;;1256359;23;20002;-74
2024/02/21 02:16:47;;;;;;;5.40;4.90;;;;;;;;;;1250968;23;20005;-74
2024/02/21 02:17:19;;;;;;;8.43;6.82;;;;;;;;;;1251090;23;20011;-74
2024/02/21 02:17:49;;;;;;;24.33;7.88;;;;;;;;;;1244007;23;20283;-74
2024/02/21 02:18:20;;;;;;;13.38;7.82;;;;;;;;;;1243718;23;20246;-74
2024/02/21 02:18:50;;;;;;;3.45;3.25;;;;;;;;;;1249034;23;20011;-74
2024/02/21 02:19:21;;;;;;;4.40;4.00;;;;;;;;;;1249239;23;20829;-74
2024/02/21 02:19:51;;;;;;;8.57;6.80;;;;;;;;;;1251744;23;20010;-75
2024/02/21 02:20:22;;;;;;;7.97;7.22;;;;;;;;;;1260409;23;20044;-73
2024/02/21 02:20:53;;;;;;;11.30;5.07;;;;;;;;;;1261795;23;20521;-75
2024/02/21 02:21:29;;;;;;;19.40;8.27;;;;;;;;;;1256398;23;20010;-73
2024/02/21 02:22:26;;;;;;;15.77;5.78;;;;;;;;;;1262269;23;20018;-72
2024/02/21 02:22:58;;;;;;;7.28;3.35;;;;;;;;;;1258484;23;20065;-74
2024/02/21 02:23:32;;;;;;;8.45;7.50;;;;;;;;;;1256561;23;20010;-73
2024/02/21 02:24:06;;;;;;;17.55;5.90;;;;;;;;;;1255493;23;20010;-73
2024/02/21 02:24:36;;;;;;;4.35;3.95;;;;;;;;;;1259016;23;20012;-74
2024/02/21 02:25:07;;;;;;;10.10;3.20;;;;;;;;;;1257089;23;20516;-73
2024/02/21 02:25:38;;;;;;;7.03;5.82;;;;;;;;;;1256914;23;20006;-73
2024/02/21 02:26:09;;;;;;;3.25;2.50;;;;;;;;;;1257433;23;20038;-73
2024/02/21 02:26:42;;;;;;;6.18;3.80;;;;;;;;;;1252601;23;20325;-75
2024/02/21 02:27:19;;;;;;;10.95;6.93;;;;;;;;;;1256981;23;20011;-74
2024/02/21 02:27:53;;;;;;;7.55;4.25;;;;;;;;;;1257540;23;20010;-74
2024/02/21 02:28:24;;;;;;;13.30;4.90;;;;;;;;;;1260183;23;20343;-74
2024/02/21 02:28:55;;;;;;;7.32;5.82;;;;;;;;;;1257192;23;20442;-75
2024/02/21 02:29:25;;;;;;;9.27;7.10;;;;;;;;;;1251291;23;20011;-75
2024/02/21 02:29:59;;;;;;;4.47;4.15;;;;;;;;;;1249488;23;20090;-75
2024/02/21 02:30:37;;;;;;;21.80;6.88;;;;;;;;;;1253135;23;20076;-74
2024/02/21 02:31:07;;;;;;;6.30;5.80;;;;;;;;;;1253613;23;20471;-73
2024/02/21 02:31:39;;;;;;;10.05;7.90;;;;;;;;;;1257976;23;20013;-74
2024/02/21 02:32:19;;;;;;;;;;;;;;;;;;;;;
2024/02/21 02:32:53;;;;;;;7.43;5.20;;;;;;;;;;1253289;23;20347;-75
2024/02/21 02:33:24;;;;;;;14.68;8.18;;;;;;;;;;1258201;23;20249;-74
2024/02/21 02:33:55;;;;;;;5.57;5.15;;;;;;;;;;1260514;23;20034;-74
2024/02/21 02:34:26;;;;;;;14.98;8.48;;;;;;;;;;1264065;23;20005;-74
2024/02/21 02:34:56;;;;;;;7.32;3.95;;;;;;;;;;1263341;23;20014;-74
2024/02/21 02:35:30;;;;;;;7.90;7.13;;;;;;;;;;1263407;23;20058;-75
2024/02/21 02:36:03;;;;;;;3.28;2.92;;;;;;;;;;1257274;23;20335;-74
2024/02/21 02:36:34;;;;;;;6.10;4.15;;;;;;;;;;1251380;23;20013;-75
2024/02/21 02:37:04;;;;;;;8.35;7.63;;;;;;;;;;1251288;23;20331;-74
2024/02/21 02:37:38;;;;;;;10.65;6.80;;;;;;;;;;1251245;23;20125;-73
2024/02/21 02:38:09;;;;;;;12.82;7.20;;;;;;;;;;1249968;23;20423;-74
2024/02/21 02:38:40;;;;;;;25.83;6.00;;;;;;;;;;1257364;23;20006;-74
2024/02/21 02:39:10;;;;;;;11.10;6.80;;;;;;;;;;1256477;23;20017;-73
2024/02/21 02:39:41;;;;;;;6.50;5.85;;;;;;;;;;1255843;23;20326;-73
2024/02/21 02:40:14;;;;;;;11.75;5.43;;;;;;;;;;1254854;23;20365;-74
2024/02/21 02:40:45;;;;;;;9.77;6.28;;;;;;;;;;1256131;23;20434;-74
2024/02/21 02:41:16;;;;;;;5.95;4.03;;;;;;;;;;1247104;23;20457;-74
2024/02/21 02:41:46;;;;;;;6.63;5.43;;;;;;;;;;1250053;23;20007;-74
2024/02/21 02:42:17;;;;;;;4.53;4.13;;;;;;;;;;1250073;23;20007;-74
2024/02/21 02:42:48;;;;;;;8.38;5.00;;;;;;;;;;1274550;23;20012;-73
2024/02/21 02:43:19;;;;;;;17.55;9.18;;;;;;;;;;1281747;23;20083;-73
2024/02/21 02:43:50;;;;;;;16.42;10.13;;;;;;;;;;1280507;23;20377;-73
2024/02/21 02:44:20;;;;;;;5.03;4.63;;;;;;;;;;1285668;23;20008;-74
2024/02/21 02:44:51;;;;;;;4.28;3.92;;;;;;;;;;1262471;23;20036;-73
2024/02/21 02:45:26;;;;;;;14.40;6.80;;;;;;;;;;1263162;23;20117;-73
2024/02/21 02:45:56;;;;;;;9.23;5.03;;;;;;;;;;1255951;23;20014;-73
2024/02/21 02:46:27;;;;;;;11.73;7.30;;;;;;;;;;1256974;23;20423;-73
2024/02/21 02:46:58;;;;;;;4.68;4.28;;;;;;;;;;1256957;23;20081;-73
2024/02/21 02:47:29;;;;;;;17.27;6.07;;;;;;;;;;1256626;23;20011;-73
2024/02/21 02:48:00;;;;;;;9.48;7.25;;;;;;;;;;1262544;23;20087;-73
2024/02/21 02:48:31;;;;;;;10.38;9.40;;;;;;;;;;1263405;23;20016;-73
2024/02/21 02:49:02;;;;;;;18.45;10.73;;;;;;;;;;1262943;23;20115;-73
2024/02/21 02:49:33;;;;;;;14.80;8.32;;;;;;;;;;1255819;23;20488;-73
2024/02/21 02:50:04;;;;;;;6.50;5.88;;;;;;;;;;1249700;23;20363;-74
2024/02/21 02:50:34;;;;;;;3.60;2.92;;;;;;;;;;1250753;23;20074;-74
2024/02/21 02:51:05;;;;;;;12.80;7.75;;;;;;;;;;1242998;23;20003;-74
2024/02/21 02:51:35;;;;;;;4.93;4.60;;;;;;;;;;1247446;23;20106;-74
2024/02/21 02:52:06;;;;;;;6.60;5.97;;;;;;;;;;1255982;23;20036;-74
2024/02/21 02:52:40;;;;;;;13.13;5.72;;;;;;;;;;1257551;23;20006;-74
2024/02/21 02:53:10;;;;;;;31.85;9.73;;;;;;;;;;1257058;23;20352;-75
2024/02/21 02:53:41;;;;;;;12.73;7.00;;;;;;;;;;1256349;23;20097;-72
2024/02/21 02:54:15;;;;;;;5.28;3.97;;;;;;;;;;1255494;23;20010;-74
2024/02/21 02:54:51;;;;;;;14.63;6.43;;;;;;;;;;1256949;23;20010;-73
2024/02/21 02:55:25;;;;;;;13.27;7.75;;;;;;;;;;1256584;23;20512;-73
2024/02/21 02:55:57;;;;;;;7.63;6.05;;;;;;;;;;1252856;23;20021;-74
2024/02/21 02:56:40;;;;;;;5.55;4.65;;;;;;;;;;1245655;23;20447;-74
2024/02/21 02:57:11;;;;;;;8.65;5.50;;;;;;;;;;1247483;23;20042;-75
2024/02/21 02:57:42;;;;;;;8.15;7.05;;;;;;;;;;1277086;23;20449;-73
2024/02/21 02:58:12;;;;;;;7.18;3.95;;;;;;;;;;1278249;23;20074;-73
2024/02/21 02:58:43;;;;;;;4.95;4.18;;;;;;;;;;1282102;23;20012;-73
2024/02/21 02:59:13;;;;;;;14.48;5.55;;;;;;;;;;1281265;23;20031;-74
2024/02/21 02:59:50;;;;;;;16.15;8.35;;;;;;;;;;1255870;23;20769;-74
2024/02/21 03:00:21;;;;;;;16.95;5.72;;;;;;;;;;1256692;23;20498;-74
2024/02/21 03:00:52;;;;;;;7.18;6.53;;;;;;;;;;1250721;23;20068;-74
2024/02/21 03:01:22;;;;;;;19.70;8.68;;;;;;;;;;1249951;23;20061;-74
2024/02/21 03:01:56;;;;;;;10.38;6.32;;;;;;;;;;1249955;23;20007;-74
2024/02/21 03:02:27;;;;;;;5.75;4.93;;;;;;;;;;1256973;23;20081;-73
2024/02/21 03:03:03;;;;;;;3.20;2.95;;;;;;;;;;1260835;23;20137;-73
2024/02/21 03:03:37;;;;;;;9.93;7.18;;;;;;;;;;1258389;23;20017;-73
2024/02/21 03:04:08;;;;;;;13.63;8.15;;;;;;;;;;1235879;23;20497;-73
2024/02/21 03:04:41;;;;;;;16.27;5.13;;;;;;;;;;1254811;23;20389;-73
2024/02/21 03:05:16;;;;;;;8.00;4.60;;;;;;;;;;1249476;23;20007;-73